Time;durP1;ratioP1;P1;durP2;ratioP2;P2;SDS_P1;SDS_P2;PMS_P1;PMS_P2;Temp;Humidity;BMP_temperature;BMP_pressure;BME280_temperature;BME280_humidity;BME280_pressure;Samples;Min_cycle;Max_cycle;Signal;HPM_P1;HPM_P2
2022/07/01 00:00:20;;;;;;;;;;;;;;;16.37;57.42;100654.94;4960746;29;1149;-45
2022/07/01 00:02:45;;;;;;;;;;;;;;;17.64;57.96;100642.19;4960916;28;1137;-47
2022/07/01 00:05:11;;;;;;;;;;;;;;;17.13;58.53;100641.34;4960553;29;1263;-47
2022/07/01 00:07:45;;;;;;;;;;;;;;;16.88;58.51;100639.47;4960607;28;1122;-41
2022/07/01 00:10:11;;;;;;;;;;;;;;;16.77;58.32;100644.16;4961124;29;1942;-46
2022/07/01 00:12:36;;;;;;;;;;;;;;;16.69;58.04;100650.22;4960334;28;1307;-47
2022/07/01 00:15:02;;;;;;;;;;;;;;;16.60;57.99;100658.19;4960772;29;999;-44
2022/07/01 00:17:28;;;;;;;;;;;;;;;16.56;57.68;100654.34;4960608;28;1157;-46
2022/07/01 00:19:54;;;;;;;;;;;;;;;16.54;57.23;100645.59;4960570;29;991;-45
2022/07/01 00:22:19;;;;;;;;;;;;;;;16.50;57.55;100649.97;4958268;29;979;-45
2022/07/01 00:24:46;;;;;;;;;;;;;;;16.45;57.21;100653.53;4960323;28;1494;-45
2022/07/01 00:27:12;;;;;;;;;;;;;;;16.42;57.22;100649.44;4960142;29;1030;-42
2022/07/01 00:29:38;;;;;;;;;;;;;;;16.41;57.16;100645.06;4960856;28;1914;-47
2022/07/01 00:32:03;;;;;;;;;;;;;;;16.39;57.33;100643.69;4960109;29;860;-43
2022/07/01 00:34:29;;;;;;;;;;;;;;;16.32;57.31;100632.97;4962668;28;1089;-44
2022/07/01 00:36:54;;;;;;;;;;;;;;;17.02;58.13;100635.06;4959789;28;927;-43
2022/07/01 00:39:20;;;;;;;;;;;;;;;17.38;58.51;100634.91;4960491;29;1019;-45
2022/07/01 00:41:45;;;;;;;;;;;;;;;16.93;58.90;100642.25;4960184;28;1089;-47
2022/07/01 00:44:17;;;;;;;;;;;;;;;16.80;58.34;100637.28;4942575;29;1050;-45
2022/07/01 00:46:43;;;;;;;;;;;;;;;16.67;57.96;100639.50;4960332;28;1411;-42
2022/07/01 00:49:08;;;;;;;;;;;;;;;16.61;57.84;100632.41;4959690;29;1935;-42
2022/07/01 00:51:34;;;;;;;;;;;;;;;16.56;57.71;100626.91;4928143;28;1114;-46
2022/07/01 00:54:01;;;;;;;;;;;;;;;16.50;57.68;100625.28;4945043;29;1069;-42
2022/07/01 00:56:26;;;;;;;;;;;;;;;16.50;57.23;100633.50;4945771;28;1103;-43
2022/07/01 00:58:52;;;;;;;;;;;;;;;16.42;57.03;100624.75;4962302;28;1384;-45
2022/07/01 01:01:17;;;;;;;;;;;;;;;16.41;56.96;100619.50;4960346;28;991;-45
2022/07/01 01:03:43;;;;;;;;;;;;;;;16.37;57.10;100623.94;4959561;28;1538;-43
2022/07/01 01:06:08;;;;;;;;;;;;;;;16.32;57.01;100622.00;4962771;28;1439;-42
2022/07/01 01:08:34;;;;;;;;;;;;;;;16.94;57.97;100619.16;4959258;28;1903;-47
2022/07/01 01:10:59;;;;;;;;;;;;;;;17.43;58.40;100618.41;4960007;28;1114;-44
2022/07/01 01:13:25;;;;;;;;;;;;;;;16.95;58.75;100620.00;4942443;29;1046;-44
2022/07/01 01:15:50;;;;;;;;;;;;;;;16.79;58.28;100621.91;4959356;28;1129;-45
2022/07/01 01:18:15;;;;;;;;;;;;;;;16.68;58.01;100615.66;4959651;28;979;-44
2022/07/01 01:20:41;;;;;;;;;;;;;;;16.61;57.67;100618.66;4959777;28;1054;-44
2022/07/01 01:23:06;;;;;;;;;;;;;;;16.56;57.69;100624.16;4959244;28;866;-48
2022/07/01 01:25:32;;;;;;;;;;;;;;;16.54;57.34;100623.63;4942508;29;991;-41
2022/07/01 01:27:58;;;;;;;;;;;;;;;16.50;57.24;100622.53;4959451;28;1189;-42
2022/07/01 01:30:23;;;;;;;;;;;;;;;16.44;57.41;100624.47;4959132;28;1910;-43
2022/07/01 01:32:49;;;;;;;;;;;;;;;16.40;57.19;100617.88;4959595;28;1007;-46
2022/07/01 01:35:15;;;;;;;;;;;;;;;17.43;57.92;100617.56;4958795;29;987;-45
2022/07/01 01:37:40;;;;;;;;;;;;;;;17.06;58.73;100613.34;4960219;28;1121;-47
2022/07/01 01:40:06;;;;;;;;;;;;;;;16.83;58.55;100615.59;4957754;28;1027;-43
2022/07/01 01:42:32;;;;;;;;;;;;;;;16.70;58.17;100622.47;4959685;28;1057;-44
2022/07/01 01:44:57;;;;;;;;;;;;;;;16.62;57.81;100606.59;4958673;28;1038;-48
2022/07/01 01:47:23;;;;;;;;;;;;;;;16.54;57.73;100607.16;4958608;28;1074;-48
2022/07/01 01:49:48;;;;;;;;;;;;;;;16.51;57.37;100613.19;4959011;28;1906;-47
2022/07/01 01:52:14;;;;;;;;;;;;;;;16.53;57.48;100620.03;4958348;28;1154;-46
2022/07/01 01:54:39;;;;;;;;;;;;;;;16.46;57.40;100627.75;4958898;29;995;-47
2022/07/01 01:57:04;;;;;;;;;;;;;;;16.43;57.19;100631.84;4959036;28;1172;-43
2022/07/01 01:59:30;;;;;;;;;;;;;;;16.38;57.41;100639.28;4960254;28;983;-50
2022/07/01 02:01:55;;;;;;;;;;;;;;;16.36;57.37;100645.03;4958915;28;1172;-45
2022/07/01 02:04:23;;;;;;;;;;;;;;;16.81;57.90;100633.47;4961954;28;1003;-46
2022/07/01 02:06:49;;;;;;;;;;;;;;;17.55;58.27;100648.28;4959073;28;1046;-48
2022/07/01 02:09:14;;;;;;;;;;;;;;;16.97;58.57;100643.34;4958900;28;1919;-44
2022/07/01 02:11:40;;;;;;;;;;;;;;;16.77;58.64;100634.03;4958762;28;1111;-47
2022/07/01 02:14:05;;;;;;;;;;;;;;;16.72;57.85;100636.78;4958070;28;920;-46
2022/07/01 02:16:31;;;;;;;;;;;;;;;16.62;57.97;100636.78;4958886;28;1058;-47
2022/07/01 02:18:56;;;;;;;;;;;;;;;16.56;57.68;100649.72;4941052;29;1392;-42
2022/07/01 02:21:22;;;;;;;;;;;;;;;16.55;57.56;100647.22;4957986;28;1074;-45
2022/07/01 02:23:47;;;;;;;;;;;;;;;16.52;57.25;100645.03;4958176;28;983;-44
2022/07/01 02:26:13;;;;;;;;;;;;;;;16.47;57.22;100645.06;4958031;29;991;-42
2022/07/01 02:28:38;;;;;;;;;;;;;;;16.40;57.23;100639.84;4958304;28;1911;-44
2022/07/01 02:31:04;;;;;;;;;;;;;;;16.41;57.09;100647.78;4958288;28;996;-45
2022/07/01 02:33:29;;;;;;;;;;;;;;;16.37;57.28;100652.19;4958349;29;1006;-44
2022/07/01 02:35:55;;;;;;;;;;;;;;;16.82;58.14;100644.16;4957635;28;1132;-43
2022/07/01 02:38:20;;;;;;;;;;;;;;;17.70;57.98;100646.59;4957838;28;1176;-45
2022/07/01 02:40:45;;;;;;;;;;;;;;;17.01;58.78;100641.69;4958708;28;1085;-43
2022/07/01 02:43:11;;;;;;;;;;;;;;;16.81;58.43;100648.00;4958285;28;975;-46
2022/07/01 02:45:36;;;;;;;;;;;;;;;16.75;58.04;100640.88;4958164;29;987;-45
2022/07/01 02:48:02;;;;;;;;;;;;;;;16.66;58.05;100648.88;4958485;28;1085;-48
2022/07/01 02:50:27;;;;;;;;;;;;;;;16.63;57.70;100654.88;4956618;28;1991;-42
2022/07/01 02:52:53;;;;;;;;;;;;;;;16.57;57.63;100650.53;4957779;28;1011;-42
2022/07/01 02:55:18;;;;;;;;;;;;;;;16.51;57.29;100646.13;4957780;28;1150;-44
2022/07/01 02:57:44;;;;;;;;;;;;;;;16.48;57.21;100655.75;4958037;29;1062;-45
2022/07/01 03:00:10;;;;;;;;;;;;;;;16.46;57.46;100659.88;4958008;28;1160;-45
2022/07/01 03:02:36;;;;;;;;;;;;;;;16.41;57.21;100656.03;4958160;28;1030;-44
2022/07/01 03:05:01;;;;;;;;;;;;;;;16.63;57.77;100656.81;4957519;28;824;-43
2022/07/01 03:07:27;;;;;;;;;;;;;;;17.49;57.95;100659.59;4957745;28;1016;-46
2022/07/01 03:09:52;;;;;;;;;;;;;;;16.95;58.75;100658.44;4957837;28;1910;-43
2022/07/01 03:12:28;;;;;;;;;;;;;;;16.79;58.44;100665.84;4958002;28;1173;-46
2022/07/01 03:14:53;;;;;;;;;;;;;;;16.69;58.17;100662.03;4957814;28;1450;-52
2022/07/01 03:17:19;;;;;;;;;;;;;;;16.66;57.91;100673.59;4957604;28;984;-53
2022/07/01 03:19:44;;;;;;;;;;;;;;;16.63;57.79;100665.88;4957650;29;987;-52
2022/07/01 03:22:10;;;;;;;;;;;;;;;16.55;57.75;100664.53;4960683;28;1070;-53
2022/07/01 03:24:35;;;;;;;;;;;;;;;16.51;57.50;100666.19;4958178;28;1153;-50
2022/07/01 03:27:01;;;;;;;;;;;;;;;16.47;57.61;100656.03;4962417;28;1081;-51
2022/07/01 03:29:26;;;;;;;;;;;;;;;16.42;57.31;100662.31;4957401;28;1983;-54
2022/07/01 03:31:51;;;;;;;;;;;;;;;17.04;58.15;100671.31;4958017;28;1073;-51
2022/07/01 03:34:17;;;;;;;;;;;;;;;17.30;58.57;100667.66;4957680;28;979;-50
2022/07/01 03:36:43;;;;;;;;;;;;;;;16.93;58.97;100673.28;4957139;29;954;-50
2022/07/01 03:39:08;;;;;;;;;;;;;;;16.79;58.54;100665.84;4957583;28;1034;-50
2022/07/01 03:41:34;;;;;;;;;;;;;;;16.69;58.28;100673.03;4952794;29;1224;-51
2022/07/01 03:43:59;;;;;;;;;;;;;;;16.65;57.91;100676.56;4957865;29;1015;-52
2022/07/01 03:46:24;;;;;;;;;;;;;;;16.57;57.61;100672.47;4957104;28;1034;-50
2022/07/01 03:48:50;;;;;;;;;;;;;;;16.54;57.57;100678.53;4957950;29;1910;-53
2022/07/01 03:51:15;;;;;;;;;;;;;;;16.46;57.59;100679.09;4962018;28;1666;-50
2022/07/01 03:56:25;;;;;;;;;;;;;;;16.37;57.43;100679.63;4957167;28;991;-51
2022/07/01 03:58:52;;;;;;;;;;;;;;;17.57;58.30;100690.09;4959759;28;1065;-53
2022/07/01 04:01:17;;;;;;;;;;;;;;;17.21;58.52;100683.91;4957164;28;998;-54
2022/07/01 04:03:42;;;;;;;;;;;;;;;16.93;58.51;100684.25;4959070;28;1276;-52
2022/07/01 04:06:08;;;;;;;;;;;;;;;16.74;58.53;100683.97;4960933;28;1058;-52
2022/07/01 04:08:34;;;;;;;;;;;;;;;16.69;58.04;100681.25;4943465;29;1914;-50
2022/07/01 04:10:59;;;;;;;;;;;;;;;16.62;57.71;100688.13;4961582;28;1145;-52
2022/07/01 04:13:25;;;;;;;;;;;;;;;16.57;57.74;100695.25;4960637;28;1061;-53
2022/07/01 04:15:50;;;;;;;;;;;;;;;16.55;57.38;100696.63;4943053;28;1070;-55
2022/07/01 04:18:16;;;;;;;;;;;;;;;16.50;57.44;100688.41;4960690;29;987;-51
2022/07/01 04:20:41;;;;;;;;;;;;;;;16.45;57.55;100686.47;4957956;28;979;-53
2022/07/01 04:23:06;;;;;;;;;;;;;;;16.47;57.75;100688.97;4960593;29;968;-52
2022/07/01 04:25:32;;;;;;;;;;;;;;;16.47;57.62;100697.19;4960572;28;1186;-52
2022/07/01 04:27:57;;;;;;;;;;;;;;;16.41;57.59;100694.44;4959413;28;2454;-51
2022/07/01 04:30:23;;;;;;;;;;;;;;;16.34;57.66;100696.66;4960375;29;1951;-50
2022/07/01 04:32:49;;;;;;;;;;;;;;;16.34;57.37;100693.06;4958594;28;2369;-52
2022/07/01 04:35:14;;;;;;;;;;;;;;;17.59;58.19;100698.88;4959952;28;2252;-49
2022/07/01 04:37:40;;;;;;;;;;;;;;;17.18;58.73;100700.94;4960083;28;2061;-52
2022/07/01 04:40:06;;;;;;;;;;;;;;;16.83;58.75;100691.66;4956856;28;2011;-54
2022/07/01 04:42:31;;;;;;;;;;;;;;;16.72;58.48;100702.66;4960134;29;1857;-52
2022/07/01 04:44:57;;;;;;;;;;;;;;;16.67;58.19;100704.59;4964436;28;2159;-55
2022/07/01 04:47:23;;;;;;;;;;;;;;;16.60;58.01;100702.13;4959560;28;1054;-52
2022/07/01 04:49:48;;;;;;;;;;;;;;;16.54;57.92;100700.50;4963235;28;1914;-50
2022/07/01 04:52:14;;;;;;;;;;;;;;;16.50;57.94;100697.47;4959395;29;1089;-50
2022/07/01 04:54:41;;;;;;;;;;;;;;;16.50;57.53;100696.66;4960439;28;1065;-49
2022/07/01 04:57:06;;;;;;;;;;;;;;;16.44;57.43;100701.31;4958056;28;1137;-48
2022/07/01 04:59:31;;;;;;;;;;;;;;;16.41;57.40;100708.16;4959562;29;888;-46
2022/07/01 05:01:58;;;;;;;;;;;;;;;16.41;57.48;100718.31;4959449;28;1228;-50
2022/07/01 05:04:24;;;;;;;;;;;;;;;16.33;57.30;100705.97;4961759;28;1034;-48
2022/07/01 05:06:49;;;;;;;;;;;;;;;16.35;57.09;100714.72;4960976;28;1003;-52
2022/07/01 05:09:15;;;;;;;;;;;;;;;16.35;57.04;100709.25;4959656;28;1973;-52
2022/07/01 05:11:40;;;;;;;;;;;;;;;17.43;58.05;100714.63;4959409;29;931;-52
2022/07/01 05:14:06;;;;;;;;;;;;;;;17.19;58.33;100705.34;4959157;28;2706;-51
2022/07/01 05:16:32;;;;;;;;;;;;;;;16.83;58.71;100708.97;4958645;28;1006;-53
2022/07/01 05:21:56;;;;;;;;;;;;;;;16.62;58.31;100708.19;4955611;28;998;-50
2022/07/01 05:24:23;;;;;;;;;;;;;;;16.57;57.73;100706.25;4959115;29;1050;-51
2022/07/01 05:26:48;;;;;;;;;;;;;;;16.50;57.81;100707.63;4959404;28;990;-51
2022/07/01 05:29:15;;;;;;;;;;;;;;;16.47;57.56;100708.19;4959361;28;1980;-52
2022/07/01 05:31:40;;;;;;;;;;;;;;;16.46;57.68;100712.00;4942911;29;1109;-52
2022/07/01 05:34:06;;;;;;;;;;;;;;;16.43;57.52;100716.94;4959140;29;980;-52
2022/07/01 05:36:32;;;;;;;;;;;;;;;16.40;57.34;100728.47;4958565;29;1000;-51
2022/07/01 05:38:58;;;;;;;;;;;;;;;16.36;57.33;100716.38;4964464;28;1007;-51
2022/07/01 05:41:23;;;;;;;;;;;;;;;16.33;57.36;100716.94;4959077;28;979;-51
2022/07/01 05:43:48;;;;;;;;;;;;;;;16.32;57.35;100715.28;4959338;28;1122;-50
2022/07/01 05:46:14;;;;;;;;;;;;;;;17.61;57.85;100717.81;4958874;28;1026;-50
2022/07/01 05:48:40;;;;;;;;;;;;;;;17.09;58.73;100718.00;4958013;28;2379;-52
2022/07/01 05:51:05;;;;;;;;;;;;;;;16.84;58.81;100716.09;4958394;28;1979;-51
2022/07/01 05:53:31;;;;;;;;;;;;;;;16.72;58.50;100713.66;4958384;28;1951;-48
2022/07/01 05:55:56;;;;;;;;;;;;;;;17.98;55.90;100711.06;4958818;28;2361;-51
2022/07/01 05:58:21;;;;;;;;;;;;;;;17.00;56.07;100713.34;4957387;28;1935;-52
2022/07/01 06:00:47;;;;;;;;;;;;;;;16.70;54.60;100707.59;4954334;28;2147;-47
2022/07/01 06:03:13;;;;;;;;;;;;;;;16.61;53.64;100706.53;4958424;28;958;-52
2022/07/01 06:05:39;;;;;;;;;;;;;;;17.51;55.12;100709.63;4958943;28;1267;-50
2022/07/01 06:08:05;;;;;;;;;;;;;;;17.01;54.63;100704.84;4958751;28;1066;-51
2022/07/01 06:10:31;;;;;;;;;;;;;;;16.87;53.61;100720.22;4958277;28;1962;-47
2022/07/01 06:12:57;;;;;;;;;;;;;;;16.73;52.34;100715.31;4958616;29;1050;-49
2022/07/01 06:15:22;;;;;;;;;;;;;;;17.31;53.29;100713.28;4958211;28;1049;-52
2022/07/01 06:17:49;;;;;;;;;;;;;;;17.24;54.13;100713.59;4940675;29;1185;-49
2022/07/01 06:20:14;;;;;;;;;;;;;;;17.01;52.89;100718.59;4952131;28;1081;-51
2022/07/01 06:22:40;;;;;;;;;;;;;;;16.95;51.92;100724.38;4961527;28;1090;-45
2022/07/01 06:25:05;;;;;;;;;;;;;;;17.41;52.87;100718.75;4958538;28;1078;-50
2022/07/01 06:27:31;;;;;;;;;;;;;;;17.37;53.39;100717.66;4957297;28;1015;-45
2022/07/01 06:29:56;;;;;;;;;;;;;;;17.12;52.15;100722.13;4958145;28;1981;-48
2022/07/01 06:32:22;;;;;;;;;;;;;;;17.03;51.57;100724.63;4958250;29;1026;-46
2022/07/01 06:34:51;;;;;;;;;;;;;;;16.92;50.87;100728.50;4957934;28;1156;-50
2022/07/01 06:37:20;;;;;;;;;;;;;;;16.99;50.79;100728.22;4956814;28;1078;-48
2022/07/01 06:39:45;;;;;;;;;;;;;;;16.93;50.57;100730.94;4957133;28;2414;-49
2022/07/01 06:42:11;;;;;;;;;;;;;;;16.92;50.28;100728.50;4957954;28;2096;-52
2022/07/01 06:44:36;;;;;;;;;;;;;;;16.86;49.76;100726.81;4957495;28;2055;-51
2022/07/01 06:47:01;;;;;;;;;;;;;;;16.92;49.23;100726.56;4957715;28;1999;-51
2022/07/01 06:49:27;;;;;;;;;;;;;;;16.81;49.30;100722.16;4957182;29;1973;-52
2022/07/01 06:51:52;;;;;;;;;;;;;;;16.85;48.91;100719.69;4955699;28;1895;-49
2022/07/01 06:54:18;;;;;;;;;;;;;;;17.51;50.61;100717.88;4956810;28;2087;-52
2022/07/01 06:56:43;;;;;;;;;;;;;;;17.04;50.92;100720.78;4957988;28;1121;-53
2022/07/01 06:59:09;;;;;;;;;;;;;;;17.01;50.42;100715.84;4958001;28;1021;-53
2022/07/01 07:01:34;;;;;;;;;;;;;;;16.98;49.78;100715.56;4957865;28;1043;-49
2022/07/01 07:04:00;;;;;;;;;;;;;;;16.98;49.34;100715.56;4958920;28;1019;-50
2022/07/01 07:06:25;;;;;;;;;;;;;;;16.84;49.18;100710.59;4957104;29;881;-49
2022/07/01 07:08:50;;;;;;;;;;;;;;;16.85;48.97;100720.50;4958379;28;1895;-50
2022/07/01 07:11:18;;;;;;;;;;;;;;;16.95;48.72;100714.19;4957534;29;964;-49
2022/07/01 07:13:43;;;;;;;;;;;;;;;16.80;48.67;100714.19;4957602;28;971;-53
2022/07/01 07:16:09;;;;;;;;;;;;;;;16.81;48.56;100716.66;4957707;28;1153;-51
2022/07/01 07:18:34;;;;;;;;;;;;;;;16.76;48.91;100714.75;4957582;28;1078;-50
2022/07/01 07:21:00;;;;;;;;;;;;;;;16.88;48.50;100722.72;4954410;28;1007;-51
2022/07/01 07:23:25;;;;;;;;;;;;;;;16.92;48.04;100717.50;4957589;28;1003;-53
2022/07/01 07:25:51;;;;;;;;;;;;;;;16.81;48.49;100724.06;4957136;28;1074;-50
2022/07/01 07:28:16;;;;;;;;;;;;;;;16.85;48.04;100725.97;4957561;29;995;-53
2022/07/01 07:30:41;;;;;;;;;;;;;;;16.81;48.16;100726.81;4956995;28;1918;-51
2022/07/01 07:33:07;;;;;;;;;;;;;;;16.77;48.03;100732.88;4957149;28;1130;-52
2022/07/01 07:35:32;;;;;;;;;;;;;;;16.75;48.12;100735.06;4961043;28;967;-46
2022/07/01 07:37:58;;;;;;;;;;;;;;;16.84;47.94;100737.25;4940109;29;1047;-50
2022/07/01 07:40:24;;;;;;;;;;;;;;;17.92;49.37;100725.94;4943617;29;1617;-50
2022/07/01 07:42:49;;;;;;;;;;;;;;;17.27;50.15;100735.00;4960906;28;1066;-51
2022/07/01 07:45:15;;;;;;;;;;;;;;;17.09;50.05;100737.22;4960876;29;874;-52
2022/07/01 07:47:41;;;;;;;;;;;;;;;17.15;49.17;100734.47;4961565;28;1007;-50
2022/07/01 07:50:07;;;;;;;;;;;;;;;17.02;49.21;100733.13;4968984;28;1989;-51
2022/07/01 07:52:32;;;;;;;;;;;;;;;17.00;48.68;100730.66;4960778;29;1485;-55
2022/07/01 07:54:58;;;;;;;;;;;;;;;16.99;48.63;100729.03;4960546;28;1212;-53
2022/07/01 07:57:23;;;;;;;;;;;;;;;16.89;48.73;100738.09;4960653;29;919;-53
2022/07/01 07:59:49;;;;;;;;;;;;;;;16.96;48.24;100729.56;4961063;28;1149;-47
2022/07/01 08:02:14;;;;;;;;;;;;;;;16.88;48.40;100736.44;4960508;28;1086;-49
2022/07/01 08:04:40;;;;;;;;;;;;;;;16.91;48.09;100735.06;4960783;29;1146;-55
2022/07/01 08:07:05;;;;;;;;;;;;;;;16.90;48.32;100736.16;4957690;28;983;-50
2022/07/01 08:09:34;;;;;;;;;;;;;;;17.79;49.27;100747.47;4942844;29;1975;-48
2022/07/01 08:12:00;;;;;;;;;;;;;;;17.42;49.89;100732.19;4960549;29;1003;-54
2022/07/01 08:14:25;;;;;;;;;;;;;;;17.27;49.56;100740.50;4965372;28;1141;-52
2022/07/01 08:16:51;;;;;;;;;;;;;;;17.17;49.16;100726.78;4960889;28;994;-53
2022/07/01 08:19:17;;;;;;;;;;;;;;;17.13;48.92;100732.00;4960672;28;1034;-51
2022/07/01 08:21:42;;;;;;;;;;;;;;;17.10;48.76;100738.88;4959831;28;955;-53
2022/07/01 08:24:08;;;;;;;;;;;;;;;17.08;48.48;100743.00;4960094;28;1101;-51
2022/07/01 08:26:33;;;;;;;;;;;;;;;17.01;48.61;100726.84;4960604;28;1117;-51
2022/07/01 08:28:58;;;;;;;;;;;;;;;17.05;48.13;100736.13;4944935;29;1975;-52
2022/07/01 08:31:24;;;;;;;;;;;;;;;17.01;48.28;100729.56;4959986;28;1249;-49
2022/07/01 08:33:51;;;;;;;;;;;;;;;16.92;48.58;100729.28;4960083;29;998;-50
2022/07/01 08:36:17;;;;;;;;;;;;;;;16.93;48.43;100736.44;4954514;28;920;-50
2022/07/01 08:38:42;;;;;;;;;;;;;;;17.00;47.98;100738.91;4967189;28;1169;-50
2022/07/01 08:41:08;;;;;;;;;;;;;;;16.95;48.20;100743.59;4960088;28;963;-51
2022/07/01 08:43:33;;;;;;;;;;;;;;;16.98;47.93;100738.34;4960546;28;971;-55
2022/07/01 08:46:01;;;;;;;;;;;;;;;16.99;47.83;100740.00;4960084;29;1054;-53
2022/07/01 08:48:27;;;;;;;;;;;;;;;17.02;47.82;100744.94;4960136;28;1466;-50
2022/07/01 08:50:52;;;;;;;;;;;;;;;16.96;48.07;100746.06;4957576;28;1906;-54
2022/07/01 08:53:18;;;;;;;;;;;;;;;17.05;47.79;100744.38;4959655;28;1189;-50
2022/07/01 08:58:27;;;;;;;;;;;;;;;17.77;48.76;100744.16;4959881;28;1118;-50
2022/07/01 09:00:53;;;;;;;;;;;;;;;17.23;49.75;100747.66;4959441;28;860;-50
2022/07/01 09:03:21;;;;;;;;;;;;;;;17.24;49.16;100741.06;4960874;28;971;-46
2022/07/01 09:05:47;;;;;;;;;;;;;;;17.15;49.17;100742.72;4963989;28;1195;-50
2022/07/01 09:08:13;;;;;;;;;;;;;;;17.23;48.52;100750.41;4959527;28;1014;-50
2022/07/01 09:10:38;;;;;;;;;;;;;;;17.13;48.35;100753.19;4959455;28;1979;-48
2022/07/01 09:13:07;;;;;;;;;;;;;;;17.18;48.41;100753.16;4959483;29;1062;-50
2022/07/01 09:15:33;;;;;;;;;;;;;;;17.10;48.34;100749.88;4959659;28;1023;-51
2022/07/01 09:18:05;;;;;;;;;;;;;;;17.17;48.05;100757.03;4959790;28;1137;-51
2022/07/01 09:20:41;;;;;;;;;;;;;;;17.09;48.25;100748.22;4957177;29;983;-49
2022/07/01 09:23:07;;;;;;;;;;;;;;;17.13;47.96;100740.25;4957790;28;2389;-48
2022/07/01 09:25:33;;;;;;;;;;;;;;;17.15;47.78;100750.97;4958631;29;2091;-50
2022/07/01 09:28:03;;;;;;;;;;;;;;;17.10;47.92;100747.13;4953967;29;2002;-50
2022/07/01 09:30:28;;;;;;;;;;;;;;;17.14;47.82;100752.91;4957826;29;2292;-49
2022/07/01 09:33:06;;;;;;;;;;;;;;;17.13;47.66;100755.94;4958394;29;1912;-52
2022/07/01 09:35:32;;;;;;;;;;;;;;;17.09;47.58;100756.47;4953799;29;1861;-47
2022/07/01 09:37:58;;;;;;;;;;;;;;;17.06;47.66;100751.53;4955663;28;2029;-51
2022/07/01 09:40:23;;;;;;;;;;;;;;;17.09;47.85;100755.66;4959537;29;1066;-51
2022/07/01 09:42:49;;;;;;;;;;;;;;;17.01;47.89;100747.97;4959500;28;950;-45
2022/07/01 09:45:14;;;;;;;;;;;;;;;17.04;47.96;100745.50;4962958;28;1058;-50
2022/07/01 09:47:40;;;;;;;;;;;;;;;17.05;47.73;100754.56;4959065;29;1070;-51
2022/07/01 09:50:06;;;;;;;;;;;;;;;16.98;47.80;100751.28;4958909;28;1915;-55
2022/07/01 09:52:31;;;;;;;;;;;;;;;17.04;47.89;100756.50;4958582;29;1078;-53
2022/07/01 09:54:57;;;;;;;;;;;;;;;17.08;47.56;100754.00;4959770;28;1145;-52
2022/07/01 09:57:22;;;;;;;;;;;;;;;16.98;47.91;100749.34;4958902;28;1062;-47
2022/07/01 09:59:48;;;;;;;;;;;;;;;17.02;48.05;100749.63;4963072;28;1003;-53
2022/07/01 10:02:13;;;;;;;;;;;;;;;17.00;48.12;100747.16;4958000;28;1030;-53
2022/07/01 10:04:45;;;;;;;;;;;;;;;16.98;48.23;100749.34;4944665;29;1157;-49
2022/07/01 10:07:29;;;;;;;;;;;;;;;16.96;47.87;100753.47;4954265;28;2535;-51
2022/07/01 10:09:57;;;;;;;;;;;;;;;17.30;48.32;100748.19;4958311;28;1903;-52
2022/07/01 10:12:26;;;;;;;;;;;;;;;17.55;49.39;100751.97;4958964;28;1039;-50
2022/07/01 10:14:51;;;;;;;;;;;;;;;17.34;49.41;100752.03;4958631;29;1031;-53
2022/07/01 10:17:29;;;;;;;;;;;;;;;17.21;49.02;100753.44;4957966;28;1073;-50
2022/07/01 10:19:56;;;;;;;;;;;;;;;17.18;49.08;100753.16;4958368;28;1010;-52
2022/07/01 10:22:26;;;;;;;;;;;;;;;17.16;48.62;100758.13;4957994;29;962;-52
2022/07/01 10:24:51;;;;;;;;;;;;;;;17.17;48.61;100757.03;4956359;28;1071;-47
2022/07/01 10:27:21;;;;;;;;;;;;;;;17.19;48.29;100761.13;4958597;29;1085;-51
2022/07/01 10:29:46;;;;;;;;;;;;;;;17.10;48.48;100762.81;4958242;28;1906;-50
2022/07/01 10:32:21;;;;;;;;;;;;;;;17.12;48.33;100757.03;4964594;28;1010;-50
2022/07/01 10:34:46;;;;;;;;;;;;;;;17.15;48.27;100764.72;4958077;28;959;-51
2022/07/01 10:37:12;;;;;;;;;;;;;;;17.15;48.10;100764.72;4951795;28;2381;-51
2022/07/01 10:40:00;;;;;;;;;;;;;;;17.20;48.19;100761.97;4956605;28;1275;-57
2022/07/01 10:42:29;;;;;;;;;;;;;;;18.05;48.55;100752.84;4951917;28;1089;-59
2022/07/01 10:45:07;;;;;;;;;;;;;;;17.52;49.57;100753.34;4956782;28;1410;-56
2022/07/01 10:47:33;;;;;;;;;;;;;;;17.44;49.15;100759.41;4958101;28;1042;-57
2022/07/01 10:49:59;;;;;;;;;;;;;;;17.37;48.81;100748.69;4957551;28;1984;-57
2022/07/01 10:52:24;;;;;;;;;;;;;;;17.37;48.53;100762.44;4957821;29;1030;-57
2022/07/01 10:54:53;;;;;;;;;;;;;;;17.37;48.19;100756.94;4957625;28;1169;-53
2022/07/01 10:57:18;;;;;;;;;;;;;;;17.22;48.61;100749.59;4963070;28;1503;-52
2022/07/01 10:59:44;;;;;;;;;;;;;;;17.28;48.32;100747.66;4957986;28;1092;-51
2022/07/01 11:02:20;;;;;;;;;;;;;;;17.26;48.36;100744.34;4957730;28;1130;-54
2022/07/01 11:04:45;;;;;;;;;;;;;;;17.21;48.41;100747.13;4958180;28;1002;-51
2022/07/01 11:07:11;;;;;;;;;;;;;;;17.23;47.91;100744.91;4957270;28;2524;-50
2022/07/01 11:09:36;;;;;;;;;;;;;;;17.18;48.20;100750.41;4962822;28;1898;-46
2022/07/01 11:12:02;;;;;;;;;;;;;;;17.14;48.39;100749.31;4957973;28;1097;-50
2022/07/01 11:14:27;;;;;;;;;;;;;;;17.19;47.90;100741.88;4946978;28;1170;-51
2022/07/01 11:16:53;;;;;;;;;;;;;;;17.17;47.98;100740.53;4965069;28;1070;-47
2022/07/01 11:19:19;;;;;;;;;;;;;;;17.16;47.91;100736.13;4944385;29;1141;-49
2022/07/01 11:21:51;;;;;;;;;;;;;;;17.17;48.15;100732.28;4961103;28;964;-50
2022/07/01 11:24:17;;;;;;;;;;;;;;;17.22;47.83;100737.75;4957415;28;1431;-54
2022/07/01 11:26:42;;;;;;;;;;;;;;;17.17;47.89;100740.53;4962156;28;1007;-50
2022/07/01 11:29:11;;;;;;;;;;;;;;;17.23;47.94;100736.66;4944501;29;1972;-50
2022/07/01 11:31:36;;;;;;;;;;;;;;;17.21;47.60;100738.88;4955683;28;1089;-45
2022/07/01 11:34:02;;;;;;;;;;;;;;;17.26;47.81;100734.19;4961479;29;869;-49
2022/07/01 11:39:22;;;;;;;;;;;;;;;17.16;48.04;100731.44;4904751;29;1174;-53
2022/07/01 11:41:51;;;;;;;;;;;;;;;17.16;48.07;100727.88;4970364;28;1102;-51
2022/07/01 11:44:27;;;;;;;;;;;;;;;17.22;47.78;100740.50;4960546;28;1065;-50
2022/07/01 11:46:52;;;;;;;;;;;;;;;17.21;47.57;100727.88;4967259;28;1312;-47
2022/07/01 11:49:23;;;;;;;;;;;;;;;17.13;47.84;100723.78;4961159;28;1970;-51
2022/07/01 11:51:55;;;;;;;;;;;;;;;17.22;47.69;100721.28;4960309;29;1232;-47
2022/07/01 11:54:23;;;;;;;;;;;;;;;17.19;47.90;100717.16;4960815;28;991;-47
2022/07/01 11:56:49;;;;;;;;;;;;;;;17.27;48.50;100715.75;4961169;28;1459;-52
2022/07/01 11:59:14;;;;;;;;;;;;;;;17.27;48.29;100710.28;4965928;28;1197;-48
2022/07/01 12:01:40;;;;;;;;;;;;;;;17.21;47.94;100714.16;4963003;28;1213;-47
2022/07/01 12:04:06;;;;;;;;;;;;;;;17.28;47.88;100722.91;4961733;28;1280;-49
2022/07/01 12:06:31;;;;;;;;;;;;;;;17.23;47.70;100717.44;4962290;28;1371;-48
2022/07/01 12:08:57;;;;;;;;;;;;;;;17.20;47.92;100709.75;4947852;29;1898;-48
2022/07/01 12:11:23;;;;;;;;;;;;;;;17.21;47.92;100714.16;4959403;29;1118;-49
2022/07/01 12:13:48;;;;;;;;;;;;;;;17.22;47.87;100716.63;4956696;29;1301;-48
2022/07/01 12:16:14;;;;;;;;;;;;;;;17.19;47.64;100719.09;4964096;28;1085;-48
2022/07/01 12:18:49;;;;;;;;;;;;;;;17.18;47.92;100714.69;4961821;28;1011;-50
2022/07/01 12:21:15;;;;;;;;;;;;;;;17.17;47.77;100719.38;4956857;28;1077;-51
2022/07/01 12:23:40;;;;;;;;;;;;;;;17.20;47.49;100718.00;4942221;28;1062;-52
2022/07/01 12:26:06;;;;;;;;;;;;;;;17.18;47.47;100704.53;4960335;28;1157;-52
2022/07/01 12:28:32;;;;;;;;;;;;;;;17.22;47.42;100704.78;4965873;28;1062;-46
2022/07/01 12:31:01;;;;;;;;;;;;;;;17.21;47.55;100700.41;4960259;29;1919;-54
2022/07/01 12:33:26;;;;;;;;;;;;;;;17.15;47.65;100707.00;4954331;28;971;-45
2022/07/01 12:35:52;;;;;;;;;;;;;;;17.17;47.66;100699.31;4962143;28;980;-45
2022/07/01 12:38:17;;;;;;;;;;;;;;;17.20;47.39;100694.06;4959896;28;1027;-54
2022/07/01 12:40:42;;;;;;;;;;;;;;;17.16;47.57;100705.91;4959860;29;1046;-51
2022/07/01 12:43:21;;;;;;;;;;;;;;;17.15;47.55;100693.25;4958472;28;1086;-52
2022/07/01 12:45:47;;;;;;;;;;;;;;;17.15;47.68;100690.53;4959923;28;1029;-52
2022/07/01 12:48:12;;;;;;;;;;;;;;;17.23;47.27;100692.69;4960748;28;1157;-50
2022/07/01 12:50:38;;;;;;;;;;;;;;;17.18;47.61;100696.28;4957088;29;1985;-50
2022/07/01 12:53:04;;;;;;;;;;;;;;;17.22;47.53;100691.03;4959328;29;1039;-50